createdAt,value
2018-09-14T00:00:59.337Z,99230.35
2018-09-14T00:03:28.740Z,99230.67
2018-09-14T00:05:57.912Z,99226.38
2018-09-14T00:08:27.021Z,99226.63
2018-09-14T00:10:59.118Z,99232.14
2018-09-14T00:13:28.262Z,99234.42
2018-09-14T00:15:57.270Z,99234.42
2018-09-14T00:18:26.434Z,99228.91
2018-09-14T00:20:56.245Z,99230.04
2018-09-14T00:23:25.319Z,99233.36
2018-09-14T00:25:54.272Z,99226.47
2018-09-14T00:28:23.537Z,99231.98
2018-09-14T00:30:52.573Z,99230.34
2018-09-14T00:33:21.673Z,99231.42
2018-09-14T00:35:51.081Z,99227.03
2018-09-14T00:38:20.023Z,99228.97
2018-09-14T00:40:49.197Z,99230.91
2018-09-14T00:43:18.475Z,99232.07
2018-09-14T00:45:47.538Z,99232.64
2018-09-14T00:48:16.578Z,99234.58
2018-09-14T00:50:45.618Z,99235.95
2018-09-14T00:53:14.819Z,99237.08
2018-09-14T00:55:44.045Z,99227.22
2018-09-14T00:58:13.326Z,99236.05
2018-09-14T01:00:42.299Z,99232.54
2018-09-14T01:03:11.964Z,99232.63
2018-09-14T01:05:41.010Z,99231.09
2018-09-14T01:08:11.138Z,99232.78
2018-09-14T01:10:40.901Z,99232.31
2018-09-14T01:13:09.935Z,99234.96
2018-09-14T01:15:39.552Z,99228.22
2018-09-14T01:18:09.286Z,99222.86
2018-09-14T01:20:39.434Z,99229.92
2018-09-14T01:23:08.984Z,99231.77
2018-09-14T01:25:38.831Z,99230.30
2018-09-14T01:28:07.948Z,99225.03
2018-09-14T01:30:37.351Z,99226.07
2018-09-14T01:33:07.575Z,99224.53
2018-09-14T01:35:41.895Z,99226.72
2018-09-14T01:38:11.164Z,99232.78
2018-09-14T01:40:40.019Z,99236.58
2018-09-14T01:43:09.031Z,99238.55
2018-09-14T01:45:37.894Z,99238.04
2018-09-14T01:48:07.102Z,99250.98
2018-09-14T01:50:36.261Z,99249.86
2018-09-14T01:53:05.447Z,99244.10
2018-09-14T01:55:34.739Z,99247.75
2018-09-14T01:58:03.843Z,99236.23
2018-09-14T02:00:32.960Z,99243.20
2018-09-14T02:03:02.516Z,99243.51
2018-09-14T02:05:37.875Z,99239.16
2018-09-14T02:08:07.529Z,99238.65
2018-09-14T02:10:36.811Z,99238.48
2018-09-14T02:13:06.748Z,99236.68
2018-09-14T02:15:36.014Z,99241.11
2018-09-14T02:18:05.287Z,99238.19
2018-09-14T02:20:34.370Z,99236.56
2018-09-14T02:23:03.801Z,99237.38
2018-09-14T02:25:32.907Z,99239.23
2018-09-14T02:28:02.240Z,99240.05
2018-09-14T02:30:31.345Z,99243.86
2018-09-14T02:33:00.360Z,99239.98
2018-09-14T02:35:29.691Z,99239.17
2018-09-14T02:37:58.817Z,99236.68
2018-09-14T02:40:28.165Z,99236.68
2018-09-14T02:42:57.260Z,99239.37
2018-09-14T02:45:26.384Z,99249.18
2018-09-14T02:47:55.521Z,99244.41
2018-09-14T02:50:24.747Z,99248.14
2018-09-14T02:52:53.845Z,99248.20
2018-09-14T02:55:22.878Z,99246.27
2018-09-14T02:57:52.726Z,99246.77
2018-09-14T03:00:22.881Z,99250.56
2018-09-14T03:02:51.825Z,99252.44
2018-09-14T03:05:20.890Z,99251.88
2018-09-14T03:07:50.676Z,99257.86
2018-09-14T03:10:20.084Z,99252.92
2018-09-14T03:12:49.226Z,99256.48
2018-09-14T03:15:18.223Z,99256.48
2018-09-14T03:17:47.582Z,99260.62
2018-09-14T03:20:16.779Z,99261.99
2018-09-14T03:22:45.820Z,99261.73
2018-09-14T03:25:14.906Z,99264.49
2018-09-14T03:27:44.103Z,99269.77
2018-09-14T03:30:13.069Z,99266.77
2018-09-14T03:32:42.062Z,99273.95
2018-09-14T03:35:11.131Z,99277.91
2018-09-14T03:37:40.056Z,99274.42
2018-09-14T03:40:09.267Z,99264.37
2018-09-14T03:42:38.708Z,99265.31
2018-09-14T03:45:07.904Z,99265.62
2018-09-14T03:47:37.474Z,99267.81
2018-09-14T03:50:06.804Z,99266.44
2018-09-14T03:52:36.032Z,99270.30
2018-09-14T03:55:05.179Z,99271.20
2018-09-14T03:57:34.129Z,99272.06
2018-09-14T04:00:03.057Z,99262.98
2018-09-14T04:02:32.003Z,99270.34
2018-09-14T04:05:01.246Z,99269.05
2018-09-14T04:07:30.335Z,99265.78
2018-09-14T04:09:59.403Z,99272.11
2018-09-14T04:12:28.483Z,99275.97
2018-09-14T04:14:57.575Z,99277.13
2018-09-14T04:17:28.418Z,99282.93
2018-09-14T04:19:57.756Z,99282.23
2018-09-14T04:22:26.745Z,99293.50
2018-09-14T04:24:55.908Z,99288.00
2018-09-14T04:27:24.762Z,99298.19
2018-09-14T04:29:53.852Z,99298.52
2018-09-14T04:32:23.300Z,99292.50
2018-09-14T04:34:52.396Z,99298.82
2018-09-14T04:37:21.534Z,99297.78
2018-09-14T04:39:50.620Z,99299.37
2018-09-14T04:42:19.821Z,99300.53
2018-09-14T04:44:48.816Z,99295.03
2018-09-14T04:47:17.819Z,99298.90
2018-09-14T04:49:46.951Z,99303.84
2018-09-14T04:52:15.824Z,99307.41
2018-09-14T04:54:44.963Z,99307.41
2018-09-14T04:57:14.090Z,99306.03
2018-09-14T04:59:43.259Z,99304.83
2018-09-14T05:02:12.289Z,99300.37
2018-09-14T05:04:41.452Z,99303.00
2018-09-14T05:07:13.547Z,99300.91
2018-09-14T05:09:42.657Z,99304.98
2018-09-14T05:12:11.878Z,99306.59
2018-09-14T05:14:41.319Z,99309.93
2018-09-14T05:17:10.495Z,99311.86
2018-09-14T05:19:40.302Z,99314.28
2018-09-14T05:22:09.319Z,99317.55
2018-09-14T05:24:38.474Z,99328.59
2018-09-14T05:27:08.537Z,99323.98
2018-09-14T05:29:37.737Z,99323.30
2018-09-14T05:32:06.702Z,99325.39
2018-09-14T05:34:35.732Z,99335.64
2018-09-14T05:37:04.924Z,99327.03
2018-09-14T05:39:34.026Z,99333.27
2018-09-14T05:42:03.218Z,99337.66
2018-09-14T05:44:32.484Z,99337.06
2018-09-14T05:47:01.846Z,99337.33
2018-09-14T05:49:30.985Z,99334.91
2018-09-14T05:52:00.046Z,99341.16
2018-09-14T05:54:29.193Z,99342.66
2018-09-14T05:56:59.460Z,99346.89
2018-09-14T05:59:29.372Z,99345.03
2018-09-14T06:01:58.567Z,99343.73
2018-09-14T06:04:27.778Z,99347.67
2018-09-14T06:06:56.993Z,99344.70
2018-09-14T06:09:25.963Z,99344.78
2018-09-14T06:11:55.004Z,99356.40
2018-09-14T06:14:24.046Z,99354.77
2018-09-14T06:16:53.664Z,99349.42
2018-09-14T06:19:22.872Z,99368.21
2018-09-14T06:21:52.486Z,99372.52
2018-09-14T06:24:21.575Z,99363.95
2018-09-14T06:26:51.087Z,99372.01
2018-09-14T06:29:21.434Z,99373.00
2018-09-14T06:31:51.086Z,99379.12
2018-09-14T06:34:20.206Z,99378.61
2018-09-14T06:36:49.478Z,99376.78
2018-09-14T06:39:18.531Z,99381.01
2018-09-14T06:41:47.709Z,99384.68
2018-09-14T06:44:16.839Z,99380.70
2018-09-14T06:46:45.885Z,99370.69
2018-09-14T06:49:15.059Z,99370.17
2018-09-14T06:51:44.371Z,99373.73
2018-09-14T06:54:13.607Z,99371.44
2018-09-14T06:56:42.822Z,99372.81
2018-09-14T06:59:12.021Z,99380.80
2018-09-14T07:01:41.357Z,99378.41
2018-09-14T07:04:10.547Z,99387.47
2018-09-14T07:06:39.824Z,99389.03
2018-09-14T07:09:09.812Z,99388.16
2018-09-14T07:11:39.189Z,99394.23
2018-09-14T07:14:08.463Z,99399.77
2018-09-14T07:16:37.675Z,99406.99
2018-09-14T07:19:07.818Z,99407.06
2018-09-14T07:21:37.153Z,99413.53
2018-09-14T07:24:06.775Z,99410.06
2018-09-14T07:26:35.749Z,99419.54
2018-09-14T07:29:05.065Z,99430.33
2018-09-14T07:31:34.586Z,99430.41
2018-09-14T07:34:03.787Z,99430.21
2018-09-14T07:36:33.001Z,99439.33
2018-09-14T07:39:02.163Z,99440.17
2018-09-14T07:41:31.241Z,99442.42
2018-09-14T07:44:00.478Z,99439.41
2018-09-14T07:46:29.552Z,99444.06
2018-09-14T07:48:58.643Z,99442.30
2018-09-14T07:51:27.750Z,99453.90
2018-09-14T07:54:03.308Z,99460.77
2018-09-14T07:56:32.450Z,99456.41
2018-09-14T07:59:01.772Z,99464.03
2018-09-14T08:01:30.895Z,99467.02
2018-09-14T08:04:00.420Z,99466.17
2018-09-14T08:06:29.938Z,99470.48
2018-09-14T08:08:59.466Z,99465.73
2018-09-14T08:11:29.197Z,99473.00
2018-09-14T08:13:58.198Z,99471.09
2018-09-14T08:16:27.521Z,99470.90
2018-09-14T08:19:03.897Z,99478.52
2018-09-14T08:21:33.001Z,99475.83
2018-09-14T08:24:03.004Z,99478.28
2018-09-14T08:26:31.967Z,99473.75
2018-09-14T08:29:01.367Z,99476.91
2018-09-14T08:31:30.356Z,99476.48
2018-09-14T08:33:59.564Z,99474.27
2018-09-14T08:36:28.593Z,99468.09
2018-09-14T08:38:57.680Z,99479.18
2018-09-14T08:41:26.844Z,99484.05
2018-09-14T08:43:56.321Z,99483.99
2018-09-14T08:46:25.535Z,99486.64
2018-09-14T08:48:54.987Z,99477.77
2018-09-14T08:51:24.168Z,99476.82
2018-09-14T08:53:53.979Z,99484.48
2018-09-14T08:56:23.643Z,99482.84
2018-09-14T08:58:52.803Z,99488.83
2018-09-14T09:01:22.682Z,99484.22
2018-09-14T09:03:52.318Z,99487.81
2018-09-14T09:06:21.737Z,99479.64
2018-09-14T09:08:51.146Z,99489.78
2018-09-14T09:11:20.354Z,99486.83
2018-09-14T09:13:50.268Z,99489.39
2018-09-14T09:16:19.411Z,99486.64
2018-09-14T09:18:48.358Z,99493.02
2018-09-14T09:21:17.510Z,99492.76
2018-09-14T09:23:47.274Z,99496.88
2018-09-14T09:26:16.346Z,99499.89
2018-09-14T09:28:45.702Z,99499.01
2018-09-14T09:31:14.856Z,99500.91
2018-09-14T09:33:43.927Z,99503.06
2018-09-14T09:36:12.991Z,99508.23
2018-09-14T09:38:42.246Z,99512.55
2018-09-14T09:41:11.676Z,99520.21
2018-09-14T09:43:40.969Z,99516.58
2018-09-14T09:46:10.432Z,99508.27
2018-09-14T09:48:39.539Z,99508.86
2018-09-14T09:51:09.184Z,99508.86
2018-09-14T09:53:38.229Z,99506.79
2018-09-14T09:56:07.740Z,99502.30
2018-09-14T09:58:36.818Z,99501.12
2018-09-14T10:01:11.741Z,99494.77
2018-09-14T10:03:44.386Z,99496.34
2018-09-14T10:06:18.656Z,99491.03
2018-09-14T10:08:47.627Z,99492.59
2018-09-14T10:11:16.566Z,99495.54
2018-09-14T10:13:46.420Z,99498.77
2018-09-14T10:16:15.726Z,99501.72
2018-09-14T10:18:44.784Z,99499.67
2018-09-14T10:21:14.174Z,99493.47
2018-09-14T10:23:43.481Z,99497.79
2018-09-14T10:26:12.705Z,99497.23
2018-09-14T10:28:41.889Z,99493.92
2018-09-14T10:31:11.161Z,99492.55
2018-09-14T10:33:40.562Z,99489.75
2018-09-14T10:36:10.133Z,99489.50
2018-09-14T10:38:39.224Z,99487.05
2018-09-14T10:41:08.281Z,99489.53
2018-09-14T10:43:37.992Z,99479.86
2018-09-14T10:46:07.754Z,99478.16
2018-09-14T10:48:37.059Z,99481.73
2018-09-14T10:51:06.322Z,99486.38
2018-09-14T10:53:35.579Z,99480.35
2018-09-14T10:56:04.784Z,99478.34
2018-09-14T10:58:38.078Z,99484.58
2018-09-14T11:01:07.055Z,99479.08
2018-09-14T11:03:36.260Z,99463.17
2018-09-14T11:06:05.155Z,99477.86
2018-09-14T11:08:34.488Z,99473.80
2018-09-14T11:11:03.647Z,99480.05
2018-09-14T11:13:35.923Z,99478.05
2018-09-14T11:16:05.427Z,99479.94
2018-09-14T11:18:34.550Z,99474.99
2018-09-14T11:21:03.852Z,99478.30
2018-09-14T11:23:33.303Z,99471.16
2018-09-14T11:26:02.495Z,99470.56
2018-09-14T11:28:31.754Z,99472.08
2018-09-14T11:31:00.949Z,99473.83
2018-09-14T11:33:29.874Z,99471.44
2018-09-14T11:35:59.462Z,99468.56
2018-09-14T11:38:28.914Z,99468.16
2018-09-14T11:40:58.184Z,99471.59
2018-09-14T11:43:27.213Z,99473.41
2018-09-14T11:45:56.348Z,99473.03
2018-09-14T11:48:25.614Z,99477.64
2018-09-14T11:50:54.746Z,99475.78
2018-09-14T11:53:23.971Z,99474.79
2018-09-14T11:55:52.952Z,99477.36
2018-09-14T11:58:22.438Z,99484.67
2018-09-14T12:00:52.599Z,99485.38
2018-09-14T12:03:21.847Z,99477.58
2018-09-14T12:05:50.814Z,99474.38
2018-09-14T12:08:20.582Z,99470.52
2018-09-14T12:10:49.557Z,99477.62
2018-09-14T12:13:18.613Z,99473.27
2018-09-14T12:15:47.607Z,99473.87
2018-09-14T12:18:16.639Z,99479.07
2018-09-14T12:20:45.719Z,99480.83
2018-09-14T12:23:15.136Z,99479.89
2018-09-14T12:25:44.730Z,99477.44
2018-09-14T12:28:14.113Z,99484.58
2018-09-14T12:30:43.556Z,99481.27
2018-09-14T12:33:12.530Z,99480.16
2018-09-14T12:35:42.639Z,99484.77
2018-09-14T12:38:11.874Z,99484.84
2018-09-14T12:40:40.952Z,99488.19
2018-09-14T12:43:09.950Z,99491.80
2018-09-14T12:45:39.000Z,99487.41
2018-09-14T12:48:08.034Z,99486.93
2018-09-14T12:50:36.999Z,99493.81
2018-09-14T12:53:06.524Z,99488.79
2018-09-14T12:55:35.536Z,99491.80
2018-09-14T12:58:04.969Z,99487.38
2018-09-14T13:00:34.055Z,99484.88
2018-09-14T13:03:05.225Z,99487.59
2018-09-14T13:05:34.450Z,99484.77
2018-09-14T13:08:03.686Z,99483.09
2018-09-14T13:10:32.646Z,99475.65
2018-09-14T13:13:01.671Z,99479.45
2018-09-14T13:15:30.825Z,99477.81
2018-09-14T13:17:59.880Z,99483.91
2018-09-14T13:20:28.905Z,99487.52
2018-09-14T13:22:58.374Z,99490.34
2018-09-14T13:25:27.425Z,99488.23
2018-09-14T13:27:57.008Z,99493.81
2018-09-14T13:30:26.672Z,99492.43
2018-09-14T13:32:55.791Z,99494.66
2018-09-14T13:35:25.223Z,99485.18
2018-09-14T13:37:54.600Z,99486.92
2018-09-14T13:40:23.644Z,99480.53
2018-09-14T13:42:52.863Z,99477.10
2018-09-14T13:45:22.153Z,99478.52
2018-09-14T13:47:51.154Z,99487.39
2018-09-14T13:50:21.548Z,99473.16
2018-09-14T13:52:50.777Z,99485.64
2018-09-14T13:55:19.869Z,99479.95
2018-09-14T13:57:48.913Z,99489.05
2018-09-14T14:00:17.996Z,99481.49
2018-09-14T14:02:47.240Z,99482.73
2018-09-14T14:05:16.490Z,99491.09
2018-09-14T14:07:45.564Z,99491.70
2018-09-14T14:10:14.707Z,99488.70
2018-09-14T14:12:44.572Z,99488.77
2018-09-14T14:15:14.262Z,99492.89
2018-09-14T14:17:43.428Z,99492.14
2018-09-14T14:20:13.861Z,99485.63
2018-09-14T14:22:42.929Z,99486.87
2018-09-14T14:25:11.989Z,99496.52
2018-09-14T14:27:41.019Z,99501.81
2018-09-14T14:30:10.970Z,99502.43
2018-09-14T14:32:40.041Z,99507.66
2018-09-14T14:35:09.072Z,99515.12
2018-09-14T14:37:38.384Z,99525.28
2018-09-14T14:40:07.808Z,99526.69
2018-09-14T14:42:37.087Z,99519.33
2018-09-14T14:45:06.272Z,99520.99
2018-09-14T14:47:35.551Z,99520.17
2018-09-14T14:50:04.784Z,99519.13
2018-09-14T14:52:33.792Z,99522.16
2018-09-14T14:55:03.097Z,99520.85
2018-09-14T14:57:32.223Z,99516.82
2018-09-14T15:00:01.320Z,99518.60
2018-09-14T15:02:30.236Z,99519.83
2018-09-14T15:04:59.297Z,99517.98
2018-09-14T15:07:28.314Z,99520.81
2018-09-14T15:09:57.450Z,99513.25
2018-09-14T15:12:26.652Z,99526.77
2018-09-14T15:14:55.931Z,99519.69
2018-09-14T15:17:25.111Z,99525.28
2018-09-14T15:19:54.546Z,99524.83
2018-09-14T15:22:23.492Z,99520.00
2018-09-14T15:24:52.807Z,99526.92
2018-09-14T15:27:21.903Z,99527.49
2018-09-14T15:29:50.947Z,99535.78
2018-09-14T15:32:20.142Z,99527.33
2018-09-14T15:34:49.208Z,99530.91
2018-09-14T15:37:18.360Z,99523.30
2018-09-14T15:39:47.499Z,99531.02
2018-09-14T15:42:16.507Z,99527.74
2018-09-14T15:44:45.973Z,99527.24
2018-09-14T15:47:15.118Z,99523.73
2018-09-14T15:49:44.098Z,99524.02
2018-09-14T15:52:13.782Z,99531.19
2018-09-14T15:54:42.854Z,99525.17
2018-09-14T15:57:11.949Z,99519.73
2018-09-14T15:59:41.150Z,99518.66
2018-09-14T16:02:10.229Z,99522.81
2018-09-14T16:04:39.326Z,99525.84
2018-09-14T16:07:08.743Z,99524.47
2018-09-14T16:09:37.839Z,99528.03
2018-09-14T16:12:07.049Z,99523.37
2018-09-14T16:14:36.310Z,99525.29
2018-09-14T16:17:05.503Z,99529.14
2018-09-14T16:19:34.477Z,99530.27
2018-09-14T16:22:03.524Z,99521.78
2018-09-14T16:24:32.596Z,99523.70
2018-09-14T16:27:01.849Z,99523.20
2018-09-14T16:29:30.981Z,99519.09
2018-09-14T16:32:00.851Z,99521.24
2018-09-14T16:34:29.861Z,99525.67
2018-09-14T16:36:59.030Z,99523.53
2018-09-14T16:39:27.997Z,99520.52
2018-09-14T16:41:56.939Z,99518.59
2018-09-14T16:44:26.513Z,99513.94
2018-09-14T16:46:55.544Z,99513.41
2018-09-14T16:49:24.668Z,99508.23
2018-09-14T16:51:53.684Z,99521.36
2018-09-14T16:54:22.986Z,99525.23
2018-09-14T16:56:51.876Z,99520.59
2018-09-14T16:59:20.972Z,99516.47
2018-09-14T17:01:50.089Z,99527.44
2018-09-14T17:04:19.156Z,99537.35
2018-09-14T17:06:48.185Z,99539.83
2018-09-14T17:09:17.223Z,99547.23
2018-09-14T17:11:46.341Z,99558.21
2018-09-14T17:14:15.634Z,99561.28
2018-09-14T17:16:44.838Z,99562.76
2018-09-14T17:19:14.200Z,99570.20
2018-09-14T17:21:43.290Z,99571.04
2018-09-14T17:24:12.374Z,99573.51
2018-09-14T17:26:41.320Z,99571.59
2018-09-14T17:29:10.455Z,99571.04
2018-09-14T17:31:39.433Z,99576.48
2018-09-14T17:34:08.535Z,99584.92
2018-09-14T17:36:38.161Z,99589.58
2018-09-14T17:39:09.466Z,99591.45
2018-09-14T17:41:39.173Z,99590.39
2018-09-14T17:44:08.281Z,99594.52
2018-09-14T17:46:37.232Z,99600.00
2018-09-14T17:49:06.490Z,99605.75
2018-09-14T17:51:35.496Z,99599.98
2018-09-14T17:54:05.133Z,99609.85
2018-09-14T17:56:34.478Z,99605.74
2018-09-14T17:59:03.608Z,99603.78
2018-09-14T18:01:33.625Z,99609.03
2018-09-14T18:04:02.892Z,99609.31
2018-09-14T18:06:31.974Z,99606.02
2018-09-14T18:09:01.184Z,99603.55
2018-09-14T18:11:30.778Z,99608.98
2018-09-14T18:13:59.843Z,99606.52
2018-09-14T18:16:30.127Z,99609.81
2018-09-14T18:18:59.502Z,99613.06
2018-09-14T18:21:28.732Z,99616.34
2018-09-14T18:23:57.820Z,99613.06
2018-09-14T18:26:26.957Z,99616.06
2018-09-14T18:28:56.082Z,99620.17
2018-09-14T18:31:25.355Z,99618.80
2018-09-14T18:33:54.463Z,99621.77
2018-09-14T18:36:23.583Z,99618.19
2018-09-14T18:38:52.647Z,99618.70
2018-09-14T18:41:21.622Z,99624.18
2018-09-14T18:43:51.136Z,99628.56
2018-09-14T18:46:20.344Z,99628.05
2018-09-14T18:48:49.538Z,99628.89
2018-09-14T18:51:18.864Z,99633.86
2018-09-14T18:53:48.010Z,99634.98
2018-09-14T18:56:17.540Z,99624.34
2018-09-14T18:58:46.643Z,99631.52
2018-09-14T19:01:15.686Z,99633.98
2018-09-14T19:03:45.227Z,99629.05
2018-09-14T19:06:14.525Z,99623.06
2018-09-14T19:08:43.670Z,99616.48
2018-09-14T19:11:12.834Z,99622.79
2018-09-14T19:13:42.326Z,99616.76
2018-09-14T19:16:11.504Z,99624.43
2018-09-14T19:18:40.653Z,99624.71
2018-09-14T19:21:09.838Z,99620.05
2018-09-14T19:23:38.990Z,99621.70
2018-09-14T19:26:07.883Z,99621.20
2018-09-14T19:28:37.097Z,99626.41
2018-09-14T19:31:06.782Z,99621.47
2018-09-14T19:33:35.986Z,99615.75
2018-09-14T19:36:05.507Z,99615.44
2018-09-14T19:38:34.985Z,99619.00
2018-09-14T19:41:04.165Z,99627.23
2018-09-14T19:43:33.246Z,99629.97
2018-09-14T19:46:02.598Z,99630.25
2018-09-14T19:48:31.691Z,99637.64
2018-09-14T19:51:00.756Z,99632.98
2018-09-14T19:53:29.775Z,99629.14
2018-09-14T19:55:58.997Z,99633.30
2018-09-14T19:58:28.171Z,99635.50
2018-09-14T20:00:57.773Z,99628.41
2018-09-14T20:03:26.990Z,99642.94
2018-09-14T20:05:56.702Z,99639.93
2018-09-14T20:08:26.312Z,99638.32
2018-09-14T20:10:55.300Z,99632.56
2018-09-14T20:13:24.413Z,99636.95
2018-09-14T20:15:53.392Z,99636.17
2018-09-14T20:18:22.676Z,99637.00
2018-09-14T20:20:52.530Z,99641.97
2018-09-14T20:23:21.905Z,99640.33
2018-09-14T20:25:51.052Z,99640.60
2018-09-14T20:28:20.115Z,99641.47
2018-09-14T20:30:49.191Z,99637.63
2018-09-14T20:33:18.622Z,99642.06
2018-09-14T20:35:48.345Z,99641.23
2018-09-14T20:38:17.706Z,99639.86
2018-09-14T20:40:46.764Z,99643.97
2018-09-14T20:43:15.906Z,99642.87
2018-09-14T20:45:45.724Z,99642.29
2018-09-14T20:48:14.711Z,99649.72
2018-09-14T20:50:43.790Z,99651.09
2018-09-14T20:53:12.921Z,99649.72
2018-09-14T20:55:42.008Z,99644.24
2018-09-14T20:58:11.485Z,99645.89
2018-09-14T21:00:40.805Z,99642.61
2018-09-14T21:03:09.914Z,99646.16
2018-09-14T21:05:39.183Z,99643.70
2018-09-14T21:08:08.375Z,99643.15
2018-09-14T21:10:37.631Z,99651.88
2018-09-14T21:13:06.747Z,99646.71
2018-09-14T21:15:36.673Z,99642.37
2018-09-14T21:18:06.078Z,99648.94
2018-09-14T21:20:35.202Z,99648.67
2018-09-14T21:23:04.137Z,99647.85
2018-09-14T21:25:33.358Z,99647.34
2018-09-14T21:28:02.534Z,99644.06
2018-09-14T21:30:31.714Z,99643.51
2018-09-14T21:33:00.812Z,99643.78
2018-09-14T21:35:30.797Z,99647.34
2018-09-14T21:38:00.110Z,99648.16
2018-09-14T21:40:29.220Z,99647.07
2018-09-14T21:42:58.525Z,99644.33
2018-09-14T21:45:27.846Z,99649.80
2018-09-14T21:47:57.042Z,99656.34
2018-09-14T21:50:26.126Z,99659.35
2018-09-14T21:52:55.667Z,99653.33
2018-09-14T21:55:25.702Z,99652.27
2018-09-14T21:57:55.166Z,99650.39
2018-09-14T22:00:29.712Z,99656.73
2018-09-14T22:02:58.778Z,99645.50
2018-09-14T22:05:27.711Z,99655.59
2018-09-14T22:07:57.410Z,99654.50
2018-09-14T22:10:27.264Z,99656.93
2018-09-14T22:12:57.177Z,99653.64
2018-09-14T22:15:26.274Z,99653.33
2018-09-14T22:17:55.392Z,99658.26
2018-09-14T22:20:24.484Z,99661.23
2018-09-14T22:22:53.471Z,99656.84
2018-09-14T22:25:22.486Z,99656.57
2018-09-14T22:30:23.397Z,99660.09
2018-09-14T22:32:52.526Z,99655.44
2018-09-14T22:35:21.831Z,99666.36
2018-09-14T22:37:51.641Z,99661.94
2018-09-14T22:40:20.787Z,99663.58
2018-09-14T22:42:50.124Z,99667.69
2018-09-14T22:45:19.247Z,99664.08
2018-09-14T22:47:48.855Z,99661.85
2018-09-14T22:50:18.096Z,99660.75
2018-09-14T22:52:47.442Z,99665.64
2018-09-14T22:55:17.001Z,99664.03
2018-09-14T22:57:46.266Z,99663.49
2018-09-14T23:00:19.472Z,99657.52
2018-09-14T23:02:48.569Z,99665.77
2018-09-14T23:05:17.653Z,99663.89
2018-09-14T23:07:46.666Z,99663.61
2018-09-14T23:10:15.793Z,99664.98
2018-09-14T23:12:44.876Z,99663.89
2018-09-14T23:15:14.028Z,99666.59
2018-09-14T23:17:43.123Z,99666.04
2018-09-14T23:20:11.989Z,99659.70
2018-09-14T23:22:40.907Z,99663.26
2018-09-14T23:25:10.043Z,99659.69
2018-09-14T23:27:39.083Z,99663.22
2018-09-14T23:30:08.275Z,99652.53
2018-09-14T23:32:37.264Z,99648.41
2018-09-14T23:35:06.333Z,99656.05
2018-09-14T23:37:35.279Z,99649.43
2018-09-14T23:40:04.588Z,99650.80
2018-09-14T23:42:34.060Z,99652.67
2018-09-14T23:45:03.071Z,99656.19
2018-09-14T23:47:32.155Z,99655.13
2018-09-14T23:50:01.314Z,99649.61
2018-09-14T23:52:30.444Z,99650.15
2018-09-14T23:55:00.027Z,99648.47
2018-09-14T23:57:29.547Z,99647.37
2018-09-14T23:59:58.981Z,99645.95
